ハバロフスク の空港の天気 - METARとTAF

ハバロフスク空港 ( UHHH / KHV ) - ロシア ハバロフスク
飛行場実況気象(Metar)
観測時間05/28 21:30 +10 (05/28 11:30 UTC)
風向・風速南 2m/s
視程10km以上
天気現象
なし
気温19℃
湿度32%
気圧998hPa
METARUHHH 281130Z 19002MPS CAVOK 19/02 Q0998 R23L/090060 NOSIG RMK QFE742/0990
過去の天気等 Google飛行場航空写真 Wunderground天気予報

過去48時間のMETAR

飛行場予報(TAF)
発表時間: 5/28 20:46 +10 (5/28 10:46 UTC)
予報対象時間: 28日22時 +10 ~ 30日4時 +10
風向・風速南西 6m/s
視程10km以上
全天の4割程度の積乱雲 雲底高度 610m
29日0時 +10 ~ 29日13時 +10 に一時的に
風向・風速西 7m/s 瞬間風速 13m/s
視程3,000m
天気現象弱いしゅう雨
全天の4割程度の雲 雲底高度 180m
全天の8割程度の積乱雲 雲底高度 610m
29日13時 +10 から
風向・風速西南西 8m/s 瞬間風速 13m/s
視程10km以上
なし
29日13時 +10 ~ 29日19時 +10 に一時的に
風向・風速西 12m/s 瞬間風速 17m/s
TAF UHHH 281046Z 2812/2918 23006MPS 9999 SCT020CB
TEMPO 2814/2903 27007G13MPS 3000 -SHRA SCT006 BKN020CB
FM290300 25008G13MPS CAVOK
TEMPO 2903/2909 28012G17MPS